Overview Statistics Trail Chart Weather Telemetry Raw packets
 

This is the latest recevied weather packets stored in our database for station/object KO4LCK. If no packets are shown the sender has not sent any weather packets the latest 10 day(s).

<< 88 89 90 91 92 93 94 >>
Time Temp. Humidity Pressure Rain* Wind** Luminosity Snow
1787972367 25° C 81% 1018.2 hPa 0 mm - 0 W/m² -
1787972062 24.44° C 81% 1018.4 hPa 0 mm - 0 W/m² -
1787971757 25° C 80% 1018.1 hPa 0 mm - 0 W/m² -
1787971453 25° C 78% 1018.1 hPa 0 mm - 0 W/m² -
1787971149 25.56° C 77% 1018 hPa 0 mm - 0 W/m² -
1787970848 26.11° C 77% 1018.1 hPa 0 mm - 0 W/m² -
1787970547 26.11° C 75% 1018.2 hPa 0 mm - 0 W/m² -
1787970249 26.11° C 74% 1018.1 hPa 0 mm - 0 W/m² -
1787969941 26.67° C 74% 1018 hPa 0 mm - 0 W/m² -
1787969640 26.11° C 74% 1017.9 hPa 0 mm - 0 W/m² -
1787969335 26.11° C 73% 1017.8 hPa 0 mm - 0 W/m² -
1787969042 25.56° C 75% 1017.8 hPa 0 mm - 0 W/m² -
1787968729 25.56° C 74% 1017.9 hPa 0 mm - 0 W/m² -
1787968428 25° C 77% 1017.7 hPa 0 mm - 0 W/m² -
1787968124 25.56° C 76% 1017.8 hPa 0 mm - 0 W/m² -
1787967822 26.11° C 76% 1017.6 hPa 0 mm - 0 W/m² -
1787967521 26.67° C 74% 1017.8 hPa 0 mm - 0 W/m² -
1787967217 26.11° C 71% 1017.6 hPa 0 mm - 0 W/m² -
1787966906 25° C 76% 1017.5 hPa 0 mm - 0 W/m² -
1787966601 25° C 78% 1017.4 hPa 0 mm - 0 W/m² -
1787966302 25° C 78% 1017.2 hPa 0 mm - 0 W/m² -
1787966002 25.56° C 76% 1017.3 hPa 0 mm - 0 W/m² -
1787965697 25.56° C 75% 1017.1 hPa 0 mm - 0 W/m² -
1787965391 25.56° C 75% 1016.9 hPa 0 mm - 0 W/m² -
1787965090 25.56° C 74% 1016.8 hPa 0 mm - 0 W/m² -

* Rain latest hour (hover to see other rain measurements)
** Current wind speed in m/s (hover to see current wind gust speed)